Time;durP1;ratioP1;P1;durP2;ratioP2;P2;SDS_P1;SDS_P2;PMS_P1;PMS_P2;Temp;Humidity;BMP_temperature;BMP_pressure;BME280_temperature;BME280_humidity;BME280_pressure;Samples;Min_cycle;Max_cycle;Signal;HPM_P1;HPM_P2
2022/11/08 00:03:46;;;;;;;10.25;1.98;;;12.40;99.90;;;;;;5091590;28;20499;-56
2022/11/08 00:14:24;;;;;;;6.60;2.80;;;12.20;99.90;;;;;;5090892;28;20499;-57
2022/11/08 00:16:50;;;;;;;5.22;2.45;;;12.10;99.90;;;;;;5090733;28;20036;-58
2022/11/08 00:19:16;;;;;;;8.88;3.38;;;12.10;99.90;;;;;;5090945;28;20071;-59
2022/11/08 00:21:41;;;;;;;7.93;2.80;;;12.20;99.90;;;;;;5091196;28;20033;-59
2022/11/08 00:24:07;;;;;;;8.70;3.00;;;12.20;99.90;;;;;;5090416;28;20051;-63
2022/11/08 00:26:33;;;;;;;13.18;3.70;;;12.10;99.90;;;;;;5093626;28;20399;-61
2022/11/08 00:28:58;;;;;;;8.43;3.08;;;12.00;99.90;;;;;;5079130;28;20476;-62
2022/11/08 00:31:24;;;;;;;9.35;3.35;;;12.00;99.90;;;;;;5083526;28;20036;-58
2022/11/08 00:33:50;;;;;;;10.50;3.00;;;12.00;99.90;;;;;;5073505;28;20102;-56
2022/11/08 00:36:15;;;;;;;7.80;3.08;;;11.90;99.90;;;;;;5088632;28;20399;-58
2022/11/08 00:38:42;;;;;;;11.05;3.58;;;11.90;99.90;;;;;;5083263;28;20017;-58
2022/11/08 00:41:08;;;;;;;8.07;3.05;;;11.90;99.90;;;;;;5079069;28;20391;-59
2022/11/08 00:43:34;;;;;;;8.73;3.65;;;11.90;99.90;;;;;;5074122;28;20087;-60
2022/11/08 00:46:00;;;;;;;6.90;2.90;;;11.80;99.90;;;;;;5085544;28;20496;-61
2022/11/08 00:48:25;;;;;;;12.35;3.60;;;11.80;99.90;;;;;;5090617;28;20103;-58
2022/11/08 00:50:51;;;;;;;5.22;3.03;;;11.70;99.90;;;;;;5090263;28;20465;-62
2022/11/08 00:53:17;;;;;;;8.63;3.05;;;11.70;99.90;;;;;;5097462;28;20508;-64
2022/11/08 00:55:42;;;;;;;10.38;3.50;;;11.60;99.90;;;;;;5097306;28;20063;-66
2022/11/08 00:58:08;;;;;;;10.27;3.25;;;11.60;99.90;;;;;;5091675;28;20081;-65
2022/11/08 01:00:34;;;;;;;8.93;4.00;;;11.50;99.90;;;;;;5093581;28;20386;-65
2022/11/08 01:03:18;;;;;;;6.63;3.10;;;11.50;99.90;;;;;;5085737;28;20028;-65
2022/11/08 01:05:45;;;;;;;6.53;2.85;;;11.50;99.90;;;;;;5085801;28;20043;-65
2022/11/08 01:08:12;;;;;;;12.13;4.20;;;11.40;99.90;;;;;;5083767;28;20067;-64
2022/11/08 01:10:46;;;;;;;9.45;3.08;;;11.30;99.90;;;;;;5092816;28;20101;-59
2022/11/08 01:13:12;;;;;;;6.30;2.90;;;11.30;99.90;;;;;;5090936;28;20028;-63
2022/11/08 01:15:40;;;;;;;9.20;3.45;;;11.30;99.90;;;;;;5082203;28;20024;-65
2022/11/08 01:18:06;;;;;;;9.05;2.83;;;11.30;99.90;;;;;;5073222;28;20798;-64
2022/11/08 01:20:36;;;;;;;5.55;2.72;;;11.20;99.90;;;;;;5090976;28;20031;-66
2022/11/08 01:23:01;;;;;;;7.00;3.00;;;11.20;99.90;;;;;;5092487;28;20492;-57
2022/11/08 01:25:27;;;;;;;5.85;2.63;;;11.20;99.90;;;;;;5099566;28;20036;-58
2022/11/08 01:27:53;;;;;;;9.38;2.78;;;11.20;99.90;;;;;;5083038;28;20032;-58
2022/11/08 01:30:18;;;;;;;6.88;3.00;;;11.20;99.90;;;;;;5092657;28;20102;-57
2022/11/08 01:32:44;;;;;;;6.10;2.92;;;11.10;99.90;;;;;;5092175;28;20428;-56
2022/11/08 01:35:09;;;;;;;6.65;2.65;;;11.10;99.90;;;;;;5092032;28;20377;-59
2022/11/08 01:37:35;;;;;;;10.05;3.15;;;11.10;99.90;;;;;;5085281;28;20066;-58
2022/11/08 01:40:01;;;;;;;7.88;3.10;;;11.10;99.90;;;;;;5079822;28;20028;-58
2022/11/08 01:42:31;;;;;;;7.57;3.63;;;11.10;99.90;;;;;;5090466;28;20039;-58
2022/11/08 01:44:59;;;;;;;11.20;3.88;;;11.00;99.90;;;;;;5080876;28;20040;-56
2022/11/08 01:47:25;;;;;;;8.85;3.30;;;11.00;99.90;;;;;;5091976;28;20047;-59
2022/11/08 01:49:55;;;;;;;9.35;4.03;;;11.10;99.90;;;;;;5091151;28;20074;-56
2022/11/08 01:52:30;;;;;;;8.95;2.88;;;11.00;99.90;;;;;;5091673;28;20027;-58
2022/11/08 01:55:05;;;;;;;8.93;3.40;;;11.10;99.90;;;;;;5091398;28;20426;-58
2022/11/08 01:57:40;;;;;;;4.75;2.35;;;11.00;99.90;;;;;;5091222;28;20048;-56
2022/11/08 02:00:09;;;;;;;8.98;2.97;;;11.00;99.90;;;;;;5092871;28;20543;-55
2022/11/08 02:02:36;;;;;;;5.43;3.05;;;11.00;99.90;;;;;;5074178;28;20498;-57
2022/11/08 02:05:03;;;;;;;6.90;2.92;;;11.00;99.90;;;;;;5091822;28;20056;-56
2022/11/08 02:07:31;;;;;;;8.98;2.80;;;11.00;99.90;;;;;;5090821;28;20020;-56
2022/11/08 02:09:57;;;;;;;5.20;2.60;;;11.00;99.90;;;;;;5092203;28;20056;-58
2022/11/08 02:12:24;;;;;;;6.63;2.53;;;11.00;99.90;;;;;;5084512;28;20064;-56
2022/11/08 02:14:50;;;;;;;5.40;2.40;;;11.00;99.90;;;;;;5086645;28;20020;-57
2022/11/08 02:17:15;;;;;;;6.70;2.78;;;11.10;99.90;;;;;;5104136;28;20111;-58
2022/11/08 02:19:46;;;;;;;10.43;3.95;;;11.00;99.90;;;;;;5074122;28;20032;-57
2022/11/08 02:22:37;;;;;;;5.45;2.47;;;11.00;99.90;;;;;;5085465;28;20035;-56
2022/11/08 02:25:03;;;;;;;8.52;3.05;;;11.00;99.90;;;;;;5090689;28;20028;-55
2022/11/08 02:27:29;;;;;;;7.03;2.67;;;11.00;99.90;;;;;;5091809;28;20024;-57
2022/11/08 02:29:55;;;;;;;8.68;2.17;;;11.00;99.90;;;;;;5082603;28;20028;-56
2022/11/08 02:32:22;;;;;;;6.90;2.67;;;10.90;99.90;;;;;;5071543;28;20067;-58
2022/11/08 02:34:56;;;;;;;9.88;2.50;;;10.90;99.90;;;;;;5081993;28;20452;-55
2022/11/08 02:37:23;;;;;;;5.20;1.92;;;10.90;99.90;;;;;;5089513;28;20036;-57
2022/11/08 02:39:48;;;;;;;5.88;2.25;;;10.90;99.90;;;;;;5071856;28;20064;-57
2022/11/08 02:42:17;;;;;;;4.75;2.10;;;10.90;99.90;;;;;;5080219;28;20481;-57
2022/11/08 02:44:43;;;;;;;5.60;2.47;;;10.80;99.90;;;;;;5084783;28;20024;-54
2022/11/08 02:47:09;;;;;;;9.88;2.78;;;10.80;99.90;;;;;;5090652;28;20030;-56
2022/11/08 02:49:34;;;;;;;7.72;2.97;;;10.80;99.90;;;;;;5095903;28;20426;-58
2022/11/08 02:52:00;;;;;;;6.47;2.28;;;10.80;99.90;;;;;;5090192;28;20032;-56
2022/11/08 02:54:25;;;;;;;5.10;2.28;;;10.80;99.90;;;;;;5086720;28;20642;-62
2022/11/08 02:56:51;;;;;;;8.50;2.67;;;10.80;99.90;;;;;;5069489;28;20074;-57
2022/11/08 02:59:16;;;;;;;4.97;2.30;;;10.70;99.90;;;;;;5077767;28;20114;-57
2022/11/08 03:01:42;;;;;;;8.43;2.50;;;10.80;99.90;;;;;;5090859;28;20063;-58
2022/11/08 03:04:07;;;;;;;5.10;2.20;;;10.80;99.90;;;;;;5089018;28;20576;-59
2022/11/08 03:06:33;;;;;;;4.72;2.20;;;10.70;99.90;;;;;;5080110;28;20468;-61
2022/11/08 03:08:58;;;;;;;5.47;2.10;;;10.70;99.90;;;;;;5085015;28;20501;-60
2022/11/08 03:11:24;;;;;;;4.57;1.95;;;10.70;99.90;;;;;;5074449;28;20024;-58
2022/11/08 03:13:50;;;;;;;4.03;2.05;;;10.70;99.90;;;;;;5091578;28;20108;-58
2022/11/08 03:16:15;;;;;;;6.28;2.05;;;10.70;99.90;;;;;;5091678;28;20078;-65
2022/11/08 03:18:41;;;;;;;3.47;2.00;;;10.60;99.90;;;;;;5078238;28;20035;-65
2022/11/08 03:21:06;;;;;;;7.03;2.20;;;10.60;99.90;;;;;;5083973;28;20035;-65
2022/11/08 03:23:32;;;;;;;6.43;2.20;;;10.60;99.90;;;;;;5090280;28;20040;-64
2022/11/08 03:26:04;;;;;;;6.05;2.10;;;10.60;99.90;;;;;;5090026;28;20036;-64
2022/11/08 03:28:30;;;;;;;6.85;2.70;;;10.60;99.90;;;;;;5090920;28;20031;-62
2022/11/08 03:30:56;;;;;;;6.15;2.13;;;10.60;99.90;;;;;;5085071;28;20036;-65
2022/11/08 03:33:22;;;;;;;4.10;1.90;;;10.60;99.90;;;;;;5073701;28;20115;-65
2022/11/08 03:35:50;;;;;;;5.75;2.33;;;10.60;99.90;;;;;;5073891;28;20058;-64
2022/11/08 03:38:15;;;;;;;6.07;2.67;;;10.70;99.90;;;;;;5090409;28;20028;-61
2022/11/08 03:40:41;;;;;;;5.80;2.17;;;10.70;99.90;;;;;;5086906;28;20117;-61
2022/11/08 03:43:07;;;;;;;4.53;1.90;;;10.60;99.90;;;;;;5079137;28;20025;-57
2022/11/08 03:45:32;;;;;;;4.65;2.13;;;10.60;99.90;;;;;;5087118;28;20040;-58
2022/11/08 03:47:58;;;;;;;6.00;2.05;;;10.60;99.90;;;;;;5077847;28;20024;-57
2022/11/08 03:50:23;;;;;;;6.45;2.78;;;10.60;99.90;;;;;;5082313;28;20697;-55
2022/11/08 03:52:51;;;;;;;7.82;2.13;;;10.60;99.90;;;;;;5086375;28;20028;-56
2022/11/08 03:55:18;;;;;;;11.07;2.92;;;10.60;99.90;;;;;;5090648;28;20024;-58
2022/11/08 03:57:46;;;;;;;6.45;2.53;;;10.60;99.90;;;;;;5089303;28;20422;-57
2022/11/08 04:00:14;;;;;;;7.43;2.55;;;10.60;99.90;;;;;;5088329;28;20379;-57
2022/11/08 04:02:40;;;;;;;5.25;2.17;;;10.60;99.90;;;;;;5090850;28;20047;-58
2022/11/08 04:05:08;;;;;;;6.13;2.40;;;10.60;99.90;;;;;;5088845;28;20088;-58
2022/11/08 04:07:34;;;;;;;5.20;2.20;;;10.60;99.90;;;;;;5089955;28;20034;-56
2022/11/08 04:09:59;;;;;;;6.30;2.10;;;10.50;99.90;;;;;;5090832;28;20015;-56
2022/11/08 04:15:16;;;;;;;5.90;2.00;;;10.50;99.90;;;;;;5089154;28;20070;-58
2022/11/08 04:23:13;;;;;;;4.63;1.80;;;10.50;99.90;;;;;;5089753;28;20113;-56
2022/11/08 04:25:39;;;;;;;3.33;1.55;;;10.50;99.90;;;;;;5090744;28;20043;-57
2022/11/08 04:28:04;;;;;;;6.13;2.10;;;10.50;99.90;;;;;;5090329;28;20020;-57
2022/11/08 04:30:30;;;;;;;5.45;2.00;;;10.50;99.90;;;;;;5091481;28;20077;-57
2022/11/08 04:33:00;;;;;;;6.78;2.00;;;10.50;99.90;;;;;;5093343;28;20052;-57
2022/11/08 04:35:26;;;;;;;4.07;1.83;;;10.50;99.90;;;;;;5094110;28;20095;-59
2022/11/08 04:37:51;;;;;;;5.15;2.50;;;10.50;99.90;;;;;;5094383;28;20024;-57
2022/11/08 04:40:17;;;;;;;8.50;2.25;;;10.50;99.90;;;;;;5094543;28;20069;-54
2022/11/08 04:42:43;;;;;;;4.15;1.70;;;10.50;99.90;;;;;;5093640;28;20078;-56
2022/11/08 04:45:09;;;;;;;6.25;2.30;;;10.50;99.90;;;;;;5094497;28;20035;-57
2022/11/08 04:47:35;;;;;;;4.68;2.10;;;10.50;99.90;;;;;;5094324;28;20020;-59
2022/11/08 04:50:01;;;;;;;7.20;2.22;;;10.50;99.90;;;;;;5093741;28;20027;-58
2022/11/08 04:52:26;;;;;;;3.95;2.20;;;10.50;99.90;;;;;;5092924;28;20032;-56
2022/11/08 04:54:52;;;;;;;5.45;2.92;;;10.50;99.90;;;;;;5094202;28;20020;-58
2022/11/08 04:57:17;;;;;;;4.47;2.28;;;10.50;99.90;;;;;;5093339;28;20056;-58
2022/11/08 04:59:43;;;;;;;4.85;2.25;;;10.50;99.90;;;;;;5094220;28;20483;-64
2022/11/08 05:02:08;;;;;;;5.53;2.30;;;10.50;99.90;;;;;;5094421;28;20020;-63
2022/11/08 05:04:34;;;;;;;3.92;1.75;;;10.50;99.90;;;;;;5091964;28;20092;-61
2022/11/08 05:06:59;;;;;;;4.00;2.00;;;10.50;99.90;;;;;;5094246;28;20040;-63
2022/11/08 05:09:26;;;;;;;4.28;1.83;;;10.50;99.90;;;;;;5093970;28;20035;-60
2022/11/08 05:11:52;;;;;;;5.70;1.88;;;10.60;99.90;;;;;;5093576;28;20028;-61
2022/11/08 05:14:18;;;;;;;5.20;2.00;;;10.60;99.90;;;;;;5092408;28;20076;-64
2022/11/08 05:16:43;;;;;;;5.13;1.80;;;10.50;99.90;;;;;;5094311;28;20054;-63
2022/11/08 05:19:09;;;;;;;7.88;2.15;;;10.60;99.90;;;;;;5093396;28;20028;-65
2022/11/08 05:24:19;;;;;;;5.65;1.80;;;10.50;99.90;;;;;;5093738;28;20331;-65
2022/11/08 05:26:46;;;;;;;8.70;2.35;;;10.50;99.90;;;;;;5093477;28;20063;-65
2022/11/08 05:29:13;;;;;;;4.38;2.20;;;10.50;99.90;;;;;;5094109;28;20020;-66
2022/11/08 05:31:39;;;;;;;8.38;2.38;;;10.50;99.90;;;;;;5093274;28;20491;-66
2022/11/08 05:34:06;;;;;;;5.35;2.35;;;10.50;99.90;;;;;;5093781;28;20048;-65
2022/11/08 05:36:32;;;;;;;4.88;2.38;;;10.50;99.90;;;;;;5093738;28;20031;-65
2022/11/08 05:38:58;;;;;;;6.65;2.20;;;10.50;99.90;;;;;;5093125;28;20035;-65
2022/11/08 05:41:24;;;;;;;3.53;2.15;;;10.50;99.90;;;;;;5092515;28;20024;-65
2022/11/08 05:43:52;;;;;;;4.90;2.40;;;10.50;99.90;;;;;;5093664;28;20039;-64
2022/11/08 05:46:20;;;;;;;5.68;2.35;;;10.60;99.90;;;;;;5092963;28;20063;-66
2022/11/08 05:48:46;;;;;;;4.43;2.30;;;10.60;99.90;;;;;;5093318;28;20027;-64
2022/11/08 05:51:13;;;;;;;4.63;2.20;;;10.60;99.90;;;;;;5093266;28;20027;-57
2022/11/08 05:53:40;;;;;;;4.57;2.42;;;10.60;99.90;;;;;;5092726;28;20487;-57
2022/11/08 05:56:06;;;;;;;4.22;2.72;;;10.50;99.90;;;;;;5091575;28;20055;-57
2022/11/08 05:58:34;;;;;;;5.55;2.10;;;10.50;99.90;;;;;;5091755;28;20024;-59
2022/11/08 06:01:07;;;;;;;7.40;2.78;;;10.50;99.90;;;;;;5092626;28;20070;-53
2022/11/08 06:03:34;;;;;;;5.38;2.42;;;10.50;99.90;;;;;;5091638;28;20556;-60
2022/11/08 06:06:04;;;;;;;6.82;2.95;;;10.50;99.90;;;;;;5092783;28;20122;-59
2022/11/08 06:08:30;;;;;;;3.53;2.43;;;10.50;99.90;;;;;;5092425;28;20043;-58
2022/11/08 06:11:05;;;;;;;6.00;2.38;;;10.50;99.90;;;;;;5092469;28;20759;-56
2022/11/08 06:13:31;;;;;;;6.95;2.67;;;10.40;99.90;;;;;;5092681;28;20024;-55
2022/11/08 06:16:06;;;;;;;6.65;2.72;;;10.40;99.90;;;;;;5092054;28;20023;-56
2022/11/08 06:18:32;;;;;;;4.00;2.22;;;10.40;99.90;;;;;;5092713;28;20286;-57
2022/11/08 06:20:59;;;;;;;9.90;3.20;;;10.40;99.90;;;;;;5091844;28;20024;-56
2022/11/08 06:23:24;;;;;;;5.82;3.03;;;10.40;99.90;;;;;;5091884;28;20827;-57
2022/11/08 06:25:50;;;;;;;5.53;2.67;;;10.40;99.90;;;;;;5091711;28;20131;-58
2022/11/08 06:28:16;;;;;;;5.45;3.50;;;10.40;99.90;;;;;;5090265;28;20051;-59
2022/11/08 06:30:41;;;;;;;5.13;3.10;;;10.40;99.90;;;;;;5091867;28;20505;-55
2022/11/08 06:33:07;;;;;;;7.03;2.83;;;10.40;99.90;;;;;;5091197;28;20081;-56
2022/11/08 06:35:33;;;;;;;7.30;2.95;;;10.40;99.90;;;;;;5091102;28;20472;-58
2022/11/08 06:38:00;;;;;;;9.05;3.60;;;10.30;99.90;;;;;;5090317;28;20027;-54
2022/11/08 06:40:26;;;;;;;10.85;3.25;;;10.40;99.90;;;;;;5091415;28;20074;-57
2022/11/08 06:42:52;;;;;;;7.15;3.45;;;10.40;99.90;;;;;;5091081;28;20476;-58
2022/11/08 06:45:18;;;;;;;8.85;3.33;;;10.40;99.90;;;;;;5091925;28;20059;-59
2022/11/08 06:47:44;;;;;;;5.18;3.13;;;10.40;99.90;;;;;;5091704;28;20349;-58
2022/11/08 06:50:09;;;;;;;6.40;3.47;;;10.40;99.90;;;;;;5091729;28;20032;-56
2022/11/08 06:52:35;;;;;;;7.93;3.65;;;10.40;99.90;;;;;;5092625;28;20111;-57
2022/11/08 06:55:00;;;;;;;6.85;3.60;;;10.40;99.90;;;;;;5092744;28;20028;-55
2022/11/08 06:57:26;;;;;;;7.55;3.45;;;10.40;99.90;;;;;;5091744;28;20028;-56
2022/11/08 06:59:51;;;;;;;7.47;3.67;;;10.40;99.90;;;;;;5092575;28;20492;-57
2022/11/08 07:02:17;;;;;;;5.82;3.67;;;10.40;99.90;;;;;;5092301;28;20103;-57
2022/11/08 07:04:43;;;;;;;11.70;4.35;;;10.50;99.90;;;;;;5091970;28;20499;-63
2022/11/08 07:07:08;;;;;;;11.00;4.60;;;10.40;99.90;;;;;;5092184;28;20035;-57
2022/11/08 07:09:34;;;;;;;8.57;4.07;;;10.40;99.90;;;;;;5092510;28;20024;-63
2022/11/08 07:11:59;;;;;;;6.53;3.15;;;10.40;99.90;;;;;;5091917;28;20081;-56
2022/11/08 07:14:25;;;;;;;4.85;2.72;;;10.40;99.90;;;;;;5092159;28;20084;-65
2022/11/08 07:16:50;;;;;;;5.32;2.83;;;10.50;99.90;;;;;;5092728;28;20439;-65
2022/11/08 07:19:16;;;;;;;7.22;3.08;;;10.50;99.90;;;;;;5091353;28;20082;-62
2022/11/08 07:21:41;;;;;;;5.72;2.40;;;10.50;99.90;;;;;;5092076;28;20031;-66
2022/11/08 07:24:07;;;;;;;7.90;2.78;;;10.50;99.90;;;;;;5090847;28;20334;-62
2022/11/08 07:26:33;;;;;;;6.22;3.00;;;10.50;99.90;;;;;;5091286;28;20036;-65
2022/11/08 07:28:59;;;;;;;6.60;2.70;;;10.50;99.90;;;;;;5091784;28;20713;-65
2022/11/08 07:31:24;;;;;;;5.65;3.15;;;10.50;99.90;;;;;;5089253;28;20020;-65
2022/11/08 07:33:50;;;;;;;6.28;2.78;;;10.60;99.90;;;;;;5091437;28;20045;-65
2022/11/08 07:36:15;;;;;;;5.40;3.33;;;10.60;99.90;;;;;;5091270;28;20065;-65
2022/11/08 07:38:41;;;;;;;6.30;3.38;;;10.60;99.90;;;;;;5090986;28;20095;-64
2022/11/08 07:41:08;;;;;;;6.28;3.10;;;10.60;99.90;;;;;;5090813;28;20114;-65
2022/11/08 07:43:34;;;;;;;4.60;2.95;;;10.60;99.90;;;;;;5091673;28;20027;-65
2022/11/08 07:46:00;;;;;;;6.90;3.45;;;10.70;99.90;;;;;;5089525;28;20028;-66
2022/11/08 07:48:27;;;;;;;6.47;3.17;;;10.70;99.90;;;;;;5091139;28;20081;-64
2022/11/08 07:50:53;;;;;;;3.97;2.58;;;10.70;99.90;;;;;;5091654;28;20020;-66
2022/11/08 07:53:19;;;;;;;6.15;2.90;;;10.70;99.90;;;;;;5090187;28;20031;-65
2022/11/08 07:55:46;;;;;;;7.15;3.00;;;10.80;99.90;;;;;;5091413;28;20566;-65
2022/11/08 07:58:13;;;;;;;4.63;2.60;;;10.80;99.90;;;;;;5091189;28;20024;-65
2022/11/08 08:00:40;;;;;;;6.40;2.63;;;10.80;99.90;;;;;;5090917;28;20044;-65
2022/11/08 08:03:08;;;;;;;5.00;2.58;;;10.90;99.90;;;;;;5090645;28;20376;-64
2022/11/08 08:05:36;;;;;;;5.90;3.10;;;10.90;99.90;;;;;;5092608;28;20028;-59
2022/11/08 08:08:03;;;;;;;5.07;2.47;;;11.00;99.90;;;;;;5094669;28;20564;-60
2022/11/08 08:10:30;;;;;;;6.05;3.72;;;11.10;99.90;;;;;;5094830;28;20024;-57
2022/11/08 08:12:56;;;;;;;4.78;2.35;;;11.10;99.90;;;;;;5095009;28;20024;-58
2022/11/08 08:15:22;;;;;;;6.50;2.90;;;11.20;99.90;;;;;;5094053;28;20021;-57
2022/11/08 08:17:48;;;;;;;4.45;2.60;;;11.30;99.90;;;;;;5095054;28;20423;-58
2022/11/08 08:20:14;;;;;;;4.80;2.65;;;11.40;99.90;;;;;;5092998;28;20073;-55
2022/11/08 08:22:47;;;;;;;3.90;2.55;;;11.40;99.90;;;;;;5094280;28;20047;-56
2022/11/08 08:25:14;;;;;;;6.32;2.60;;;11.40;99.90;;;;;;5094387;28;20024;-57
2022/11/08 08:27:44;;;;;;;4.78;2.92;;;11.50;99.90;;;;;;5088385;28;20119;-63
2022/11/08 08:30:10;;;;;;;4.55;2.70;;;11.50;99.90;;;;;;5085678;28;20107;-58
2022/11/08 08:32:36;;;;;;;6.63;2.90;;;11.60;99.90;;;;;;5087078;28;20169;-63
2022/11/08 08:35:01;;;;;;;4.90;2.38;;;11.70;99.90;;;;;;5089684;28;20584;-56
2022/11/08 08:37:27;;;;;;;5.68;2.67;;;11.70;99.90;;;;;;5092697;28;20028;-61
2022/11/08 08:39:53;;;;;;;6.25;3.00;;;11.80;99.90;;;;;;5091242;28;20035;-57
2022/11/08 08:42:18;;;;;;;5.72;3.75;;;11.90;99.90;;;;;;5073450;28;20032;-53
2022/11/08 08:44:44;;;;;;;5.00;2.97;;;12.00;99.90;;;;;;5073054;28;20151;-57
2022/11/08 08:47:09;;;;;;;8.02;3.92;;;12.10;99.90;;;;;;5072677;28;20112;-58
2022/11/08 08:49:35;;;;;;;10.15;5.53;;;12.20;99.90;;;;;;5071878;28;20025;-58
2022/11/08 08:52:00;;;;;;;8.25;3.65;;;12.30;99.90;;;;;;5071847;28;20031;-58
2022/11/08 08:54:26;;;;;;;5.60;3.05;;;12.40;99.90;;;;;;5072203;28;20036;-57
2022/11/08 08:56:52;;;;;;;5.60;3.13;;;12.40;99.90;;;;;;5071780;28;20036;-58
2022/11/08 08:59:18;;;;;;;5.78;2.65;;;12.60;99.90;;;;;;5071825;28;20017;-57
2022/11/08 09:01:43;;;;;;;6.57;2.70;;;12.60;99.90;;;;;;5071047;28;20519;-56
2022/11/08 09:04:09;;;;;;;5.70;2.63;;;12.70;99.90;;;;;;5071457;28;20023;-57
2022/11/08 09:06:34;;;;;;;5.90;2.38;;;12.70;99.90;;;;;;5076133;28;20040;-57
2022/11/08 09:09:00;;;;;;;6.25;2.30;;;12.80;99.90;;;;;;5084859;28;20095;-58
2022/11/08 09:11:26;;;;;;;5.32;1.88;;;12.80;99.90;;;;;;5085949;28;20030;-59
2022/11/08 09:13:52;;;;;;;4.25;2.30;;;12.90;99.90;;;;;;5089573;28;20028;-61
2022/11/08 09:16:18;;;;;;;8.13;2.70;;;12.90;99.90;;;;;;5087529;28;20028;-55
2022/11/08 09:18:44;;;;;;;5.57;2.08;;;13.00;99.90;;;;;;5088688;28;20101;-62
2022/11/08 09:21:09;;;;;;;3.40;2.30;;;13.00;99.90;;;;;;5089213;28;20032;-64
2022/11/08 09:23:35;;;;;;;5.60;2.40;;;13.10;99.70;;;;;;5090268;28;20585;-62
2022/11/08 09:26:03;;;;;;;4.47;2.30;;;13.10;98.90;;;;;;5091329;28;20048;-65
2022/11/08 09:28:31;;;;;;;5.15;2.20;;;13.20;98.90;;;;;;5086357;28;20047;-64
2022/11/08 09:31:04;;;;;;;5.60;2.30;;;13.10;98.70;;;;;;5089602;28;20063;-63
2022/11/08 09:33:30;;;;;;;2.72;1.92;;;13.20;98.70;;;;;;5089982;28;20024;-61
2022/11/08 09:35:57;;;;;;;3.85;1.77;;;13.30;98.40;;;;;;5091736;28;20366;-57
2022/11/08 09:38:22;;;;;;;4.68;2.22;;;13.30;98.30;;;;;;5090391;28;20020;-61
2022/11/08 09:40:54;;;;;;;3.80;1.55;;;13.40;98.00;;;;;;5092679;28;20048;-62
2022/11/08 09:43:29;;;;;;;3.17;1.50;;;13.40;97.70;;;;;;5091892;28;20028;-64
2022/11/08 09:45:56;;;;;;;5.80;1.80;;;13.50;97.60;;;;;;5092326;28;20032;-64
2022/11/08 09:48:23;;;;;;;4.38;2.00;;;13.60;97.00;;;;;;5091642;28;20016;-64
2022/11/08 09:50:51;;;;;;;3.10;1.75;;;13.70;97.00;;;;;;5092708;28;20421;-64
2022/11/08 09:53:26;;;;;;;3.63;1.95;;;13.70;96.80;;;;;;5091619;28;20107;-63
2022/11/08 09:56:01;;;;;;;2.22;1.40;;;13.80;96.60;;;;;;5092407;28;20028;-64
2022/11/08 09:58:35;;;;;;;3.60;1.52;;;13.90;96.50;;;;;;5092131;28;20526;-61
2022/11/08 10:01:01;;;;;;;3.83;1.58;;;13.90;96.30;;;;;;5092025;28;20505;-64
2022/11/08 10:03:28;;;;;;;2.65;1.73;;;14.00;95.60;;;;;;5092082;28;20678;-63
2022/11/08 10:06:05;;;;;;;6.22;1.60;;;14.00;95.50;;;;;;5091616;28;20690;-64
2022/11/08 10:08:36;;;;;;;5.25;2.33;;;14.10;95.50;;;;;;5091900;28;20043;-64
2022/11/08 10:11:22;;;;;;;5.50;1.90;;;14.10;95.20;;;;;;5092007;28;20417;-64
2022/11/08 10:14:08;;;;;;;4.30;1.80;;;14.20;94.90;;;;;;5091445;28;20480;-63
2022/11/08 10:17:08;;;;;;;4.20;1.92;;;14.20;94.70;;;;;;5092149;28;20016;-57
2022/11/08 10:20:01;;;;;;;4.15;1.90;;;14.20;94.50;;;;;;5091898;28;20487;-59
2022/11/08 10:23:05;;;;;;;5.20;2.00;;;14.20;94.50;;;;;;5091397;28;20026;-58
2022/11/08 10:25:37;;;;;;;3.58;1.90;;;14.20;94.60;;;;;;5092043;28;20043;-63
2022/11/08 10:28:06;;;;;;;5.22;2.42;;;14.20;94.70;;;;;;5089999;28;20056;-55
2022/11/08 10:30:37;;;;;;;6.32;1.98;;;14.20;94.50;;;;;;5091498;28;20031;-59
2022/11/08 10:33:27;;;;;;;4.65;2.80;;;14.20;94.50;;;;;;5091552;28;20027;-58
2022/11/08 10:36:05;;;;;;;6.43;2.90;;;14.20;94.60;;;;;;5091191;28;20047;-57
2022/11/08 10:38:35;;;;;;;4.63;2.15;;;14.30;94.60;;;;;;5091157;28;20531;-58
2022/11/08 10:41:30;;;;;;;5.70;1.90;;;14.30;94.30;;;;;;5089098;28;20076;-59
2022/11/08 10:44:14;;;;;;;5.60;2.25;;;14.30;94.20;;;;;;5071979;28;20096;-59
2022/11/08 10:46:48;;;;;;;3.55;1.75;;;14.30;94.10;;;;;;5070984;28;20037;-62
2022/11/08 10:49:21;;;;;;;4.30;2.05;;;14.30;94.20;;;;;;5070358;28;20016;-59
2022/11/08 10:51:53;;;;;;;4.93;2.10;;;14.30;93.80;;;;;;5073486;28;20051;-58
2022/11/08 10:54:51;;;;;;;4.55;1.85;;;14.30;93.90;;;;;;5088489;28;20039;-58
2022/11/08 10:57:35;;;;;;;3.85;2.00;;;14.40;93.80;;;;;;5083345;28;20012;-59
2022/11/08 11:00:19;;;;;;;6.30;2.00;;;14.40;93.80;;;;;;5090819;28;20024;-57
2022/11/08 11:02:51;;;;;;;4.72;2.00;;;14.40;93.70;;;;;;5089531;28;20024;-56
2022/11/08 11:05:17;;;;;;;5.13;2.00;;;14.50;93.70;;;;;;5090645;28;20016;-55
2022/11/08 11:07:57;;;;;;;3.55;1.83;;;14.60;93.40;;;;;;5089935;28;20481;-56
2022/11/08 11:10:30;;;;;;;5.73;2.10;;;14.60;93.20;;;;;;5089738;28;20426;-53
2022/11/08 11:13:12;;;;;;;6.10;2.42;;;14.70;93.20;;;;;;5090100;28;20016;-58
2022/11/08 11:15:51;;;;;;;3.85;2.42;;;14.80;92.90;;;;;;5090392;28;20488;-59
2022/11/08 11:18:26;;;;;;;4.43;2.22;;;14.80;92.70;;;;;;5084121;28;20024;-61
2022/11/08 11:20:59;;;;;;;4.78;2.10;;;14.80;92.80;;;;;;5090910;28;20016;-64
2022/11/08 11:23:33;;;;;;;5.00;2.15;;;14.80;92.70;;;;;;5089162;28;20052;-62
2022/11/08 11:25:58;;;;;;;4.20;2.05;;;14.80;92.70;;;;;;5090663;28;20081;-61
2022/11/08 11:28:24;;;;;;;6.10;2.28;;;14.80;92.60;;;;;;5089316;28;20024;-63
2022/11/08 11:31:03;;;;;;;9.32;2.33;;;14.90;92.70;;;;;;5090714;28;20063;-64
2022/11/08 11:33:30;;;;;;;4.47;2.35;;;14.90;92.70;;;;;;5084791;28;20016;-64
2022/11/08 11:35:56;;;;;;;3.55;2.20;;;14.90;92.70;;;;;;5088463;28;20039;-65
2022/11/08 11:38:42;;;;;;;3.90;2.35;;;14.90;92.70;;;;;;5086725;28;20020;-64
2022/11/08 11:41:41;;;;;;;5.18;2.08;;;14.90;92.60;;;;;;5079800;28;20043;-63
2022/11/08 11:44:27;;;;;;;5.28;2.40;;;14.90;92.60;;;;;;5089306;28;20020;-62
2022/11/08 11:47:00;;;;;;;4.25;2.10;;;15.10;92.80;;;;;;5088943;28;20093;-62
2022/11/08 11:49:29;;;;;;;5.20;2.70;;;15.10;92.60;;;;;;5088972;28;20027;-63
2022/11/08 11:51:55;;;;;;;5.20;1.98;;;15.20;92.60;;;;;;5083277;28;20031;-64
2022/11/08 11:54:30;;;;;;;4.30;2.00;;;15.30;92.40;;;;;;5088245;28;20020;-62
2022/11/08 11:56:59;;;;;;;6.13;2.60;;;15.40;92.20;;;;;;5090052;28;20258;-64
2022/11/08 11:59:34;;;;;;;4.15;2.20;;;15.40;92.10;;;;;;5089479;28;20430;-62
2022/11/08 12:02:05;;;;;;;3.55;1.98;;;15.40;92.00;;;;;;5085530;28;20106;-56
2022/11/08 12:04:50;;;;;;;;;;;15.40;91.70;;;;;;5087374;28;20028;-64
2022/11/08 12:07:32;;;;;;;6.25;1.88;;;15.40;91.60;;;;;;5084328;28;20368;-65
2022/11/08 12:10:13;;;;;;;3.40;1.63;;;15.50;91.70;;;;;;5086708;28;20029;-60
2022/11/08 12:12:57;;;;;;;3.57;1.87;;;15.50;91.80;;;;;;5089428;28;20100;-63
2022/11/08 12:15:29;;;;;;;5.55;1.95;;;15.50;91.50;;;;;;5082391;28;20270;-65
2022/11/08 12:17:54;;;;;;;3.65;1.70;;;15.50;91.40;;;;;;5109418;28;20024;-67
2022/11/08 12:21:01;;;;;;;4.35;1.95;;;15.40;91.40;;;;;;5100835;28;20090;-63
2022/11/08 12:23:53;;;;;;;3.55;1.80;;;15.30;91.40;;;;;;5055798;28;20492;-62
2022/11/08 12:26:34;;;;;;;3.88;1.85;;;15.30;91.50;;;;;;5083867;28;20040;-63
2022/11/08 12:29:08;;;;;;;5.28;2.33;;;15.30;91.40;;;;;;5088391;28;20038;-62
2022/11/08 12:32:03;;;;;;;4.35;2.00;;;15.30;91.50;;;;;;5078286;28;20082;-63
2022/11/08 12:34:54;;;;;;;5.85;1.80;;;15.30;91.60;;;;;;5085972;28;20052;-60
2022/11/08 12:37:35;;;;;;;5.55;1.83;;;15.30;91.20;;;;;;5089911;28;20028;-58
2022/11/08 12:40:26;;;;;;;2.80;1.30;;;15.30;91.40;;;;;;5083660;28;20035;-58
2022/11/08 12:43:16;;;;;;;4.32;1.80;;;15.30;91.60;;;;;;5082680;28;20040;-58
2022/11/08 12:46:06;;;;;;;5.20;2.28;;;15.30;91.60;;;;;;5086596;28;20036;-58
2022/11/08 12:48:46;;;;;;;5.72;2.03;;;15.20;91.50;;;;;;5086602;28;20428;-58
2022/11/08 12:51:43;;;;;;;5.95;1.80;;;15.20;91.40;;;;;;5091483;28;20016;-55
2022/11/08 12:54:29;;;;;;;2.90;1.40;;;15.20;91.70;;;;;;5090370;28;20480;-59
2022/11/08 12:57:00;;;;;;;3.55;1.83;;;15.30;91.40;;;;;;5074071;28;20024;-56
2022/11/08 12:59:52;;;;;;;3.17;1.63;;;15.40;91.20;;;;;;5074716;28;20029;-56
2022/11/08 13:02:22;;;;;;;3.60;1.88;;;15.40;91.10;;;;;;5071496;28;20278;-57
2022/11/08 13:05:10;;;;;;;5.55;1.95;;;15.40;90.90;;;;;;5089822;28;20153;-52
2022/11/08 13:08:03;;;;;;;3.92;1.67;;;15.40;91.00;;;;;;5089703;28;20039;-57
2022/11/08 13:10:59;;;;;;;3.05;1.52;;;15.30;90.90;;;;;;5086686;28;20032;-55
2022/11/08 13:13:47;;;;;;;3.50;1.40;;;15.30;91.00;;;;;;5092087;28;20059;-52
2022/11/08 13:16:20;;;;;;;6.72;1.88;;;15.30;90.80;;;;;;5086531;28;20038;-56
2022/11/08 13:18:48;;;;;;;4.88;2.03;;;15.30;90.90;;;;;;5079934;28;20030;-57
2022/11/08 13:21:29;;;;;;;6.03;1.80;;;15.30;91.00;;;;;;5091907;28;20039;-58